sensor_id;sensor_type;location;lat;lon;timestamp;temperature;humidity
31379;DHT22;61664;48.112;11.662;2023-06-14T00:01:48;19.70;30.20
31379;DHT22;61664;48.112;11.662;2023-06-14T00:04:15;19.70;30.20
31379;DHT22;61664;48.112;11.662;2023-06-14T00:06:47;19.70;30.20
31379;DHT22;61664;48.112;11.662;2023-06-14T00:09:17;19.60;30.20
31379;DHT22;61664;48.112;11.662;2023-06-14T00:11:44;19.60;30.10
31379;DHT22;61664;48.112;11.662;2023-06-14T00:14:11;19.50;30.20
31379;DHT22;61664;48.112;11.662;2023-06-14T00:16:40;19.50;30.40
31379;DHT22;61664;48.112;11.662;2023-06-14T00:19:09;19.40;30.70
31379;DHT22;61664;48.112;11.662;2023-06-14T00:21:37;19.50;30.00
31379;DHT22;61664;48.112;11.662;2023-06-14T00:24:04;19.40;30.10
31379;DHT22;61664;48.112;11.662;2023-06-14T00:26:32;19.30;30.50
31379;DHT22;61664;48.112;11.662;2023-06-14T00:28:59;19.30;30.60
31379;DHT22;61664;48.112;11.662;2023-06-14T00:31:26;19.20;30.80
31379;DHT22;61664;48.112;11.662;2023-06-14T00:33:53;19.20;31.00
31379;DHT22;61664;48.112;11.662;2023-06-14T00:36:20;19.20;31.00
31379;DHT22;61664;48.112;11.662;2023-06-14T00:38:47;19.10;31.10
31379;DHT22;61664;48.112;11.662;2023-06-14T00:41:14;19.10;31.20
31379;DHT22;61664;48.112;11.662;2023-06-14T00:43:41;19.00;31.30
31379;DHT22;61664;48.112;11.662;2023-06-14T00:46:08;19.00;31.40
31379;DHT22;61664;48.112;11.662;2023-06-14T00:48:36;18.90;31.40
31379;DHT22;61664;48.112;11.662;2023-06-14T00:51:04;18.90;31.70
31379;DHT22;61664;48.112;11.662;2023-06-14T00:53:32;18.80;31.40
31379;DHT22;61664;48.112;11.662;2023-06-14T00:56:03;18.80;31.60
31379;DHT22;61664;48.112;11.662;2023-06-14T00:58:30;18.70;31.60
31379;DHT22;61664;48.112;11.662;2023-06-14T01:00:58;18.70;31.90
31379;DHT22;61664;48.112;11.662;2023-06-14T01:03:25;18.70;32.00
31379;DHT22;61664;48.112;11.662;2023-06-14T01:09:27;18.60;33.20
31379;DHT22;61664;48.112;11.662;2023-06-14T01:15:08;18.50;33.10
31379;DHT22;61664;48.112;11.662;2023-06-14T01:17:36;18.40;32.20
31379;DHT22;61664;48.112;11.662;2023-06-14T01:20:12;18.40;32.40
31379;DHT22;61664;48.112;11.662;2023-06-14T01:22:51;18.30;32.60
31379;DHT22;61664;48.112;11.662;2023-06-14T01:25:20;18.30;33.70
31379;DHT22;61664;48.112;11.662;2023-06-14T01:28:03;18.20;32.60
31379;DHT22;61664;48.112;11.662;2023-06-14T01:30:45;18.20;33.40
31379;DHT22;61664;48.112;11.662;2023-06-14T01:33:19;18.20;33.90
31379;DHT22;61664;48.112;11.662;2023-06-14T01:35:51;18.10;33.50
31379;DHT22;61664;48.112;11.662;2023-06-14T01:38:24;18.10;33.20
31379;DHT22;61664;48.112;11.662;2023-06-14T01:40:54;18.00;33.80
31379;DHT22;61664;48.112;11.662;2023-06-14T01:43:25;17.90;33.40
31379;DHT22;61664;48.112;11.662;2023-06-14T01:45:54;17.90;33.30
31379;DHT22;61664;48.112;11.662;2023-06-14T01:48:22;17.80;34.00
31379;DHT22;61664;48.112;11.662;2023-06-14T01:50:50;17.70;33.50
31379;DHT22;61664;48.112;11.662;2023-06-14T01:53:19;17.70;33.70
31379;DHT22;61664;48.112;11.662;2023-06-14T01:55:46;17.60;33.70
31379;DHT22;61664;48.112;11.662;2023-06-14T01:58:15;17.60;34.00
31379;DHT22;61664;48.112;11.662;2023-06-14T02:00:45;17.60;34.00
31379;DHT22;61664;48.112;11.662;2023-06-14T02:03:14;17.50;34.00
31379;DHT22;61664;48.112;11.662;2023-06-14T02:05:42;17.50;34.10
31379;DHT22;61664;48.112;11.662;2023-06-14T02:08:09;17.50;34.10
31379;DHT22;61664;48.112;11.662;2023-06-14T02:10:36;17.50;34.10
31379;DHT22;61664;48.112;11.662;2023-06-14T02:13:03;17.50;34.20
31379;DHT22;61664;48.112;11.662;2023-06-14T02:15:30;17.40;34.30
31379;DHT22;61664;48.112;11.662;2023-06-14T02:18:03;17.40;34.30
31379;DHT22;61664;48.112;11.662;2023-06-14T02:20:31;17.40;34.40
31379;DHT22;61664;48.112;11.662;2023-06-14T02:22:58;17.40;34.40
31379;DHT22;61664;48.112;11.662;2023-06-14T02:25:25;17.40;34.50
31379;DHT22;61664;48.112;11.662;2023-06-14T02:27:54;17.30;34.50
31379;DHT22;61664;48.112;11.662;2023-06-14T02:30:22;17.30;34.60
31379;DHT22;61664;48.112;11.662;2023-06-14T02:32:49;17.30;34.70
31379;DHT22;61664;48.112;11.662;2023-06-14T02:35:18;17.30;34.70
31379;DHT22;61664;48.112;11.662;2023-06-14T02:37:47;17.30;34.80
31379;DHT22;61664;48.112;11.662;2023-06-14T02:40:14;17.20;34.70
31379;DHT22;61664;48.112;11.662;2023-06-14T02:42:41;17.20;34.80
31379;DHT22;61664;48.112;11.662;2023-06-14T02:45:08;17.20;34.80
31379;DHT22;61664;48.112;11.662;2023-06-14T02:47:36;17.20;34.90
31379;DHT22;61664;48.112;11.662;2023-06-14T02:50:03;17.10;35.00
31379;DHT22;61664;48.112;11.662;2023-06-14T02:52:31;17.00;35.00
31379;DHT22;61664;48.112;11.662;2023-06-14T02:54:59;17.00;35.10
31379;DHT22;61664;48.112;11.662;2023-06-14T02:57:27;16.90;35.30
31379;DHT22;61664;48.112;11.662;2023-06-14T02:59:54;16.80;35.30
31379;DHT22;61664;48.112;11.662;2023-06-14T03:02:21;16.80;35.40
31379;DHT22;61664;48.112;11.662;2023-06-14T03:04:47;16.80;35.60
31379;DHT22;61664;48.112;11.662;2023-06-14T03:07:14;16.80;35.60
31379;DHT22;61664;48.112;11.662;2023-06-14T03:09:49;16.80;35.50
31379;DHT22;61664;48.112;11.662;2023-06-14T03:12:16;16.70;35.80
31379;DHT22;61664;48.112;11.662;2023-06-14T03:14:43;16.80;35.60
31379;DHT22;61664;48.112;11.662;2023-06-14T03:17:13;16.70;35.60
31379;DHT22;61664;48.112;11.662;2023-06-14T03:19:40;16.70;35.70
31379;DHT22;61664;48.112;11.662;2023-06-14T03:22:08;16.70;35.80
31379;DHT22;61664;48.112;11.662;2023-06-14T03:24:35;16.70;36.00
31379;DHT22;61664;48.112;11.662;2023-06-14T03:27:04;16.60;36.10
31379;DHT22;61664;48.112;11.662;2023-06-14T03:29:31;16.60;36.20
31379;DHT22;61664;48.112;11.662;2023-06-14T03:32:01;16.50;36.20
31379;DHT22;61664;48.112;11.662;2023-06-14T03:34:29;16.50;36.50
31379;DHT22;61664;48.112;11.662;2023-06-14T03:36:56;16.50;36.40
31379;DHT22;61664;48.112;11.662;2023-06-14T03:39:22;16.50;36.50
31379;DHT22;61664;48.112;11.662;2023-06-14T03:41:49;16.50;36.60
31379;DHT22;61664;48.112;11.662;2023-06-14T03:44:17;16.50;36.70
31379;DHT22;61664;48.112;11.662;2023-06-14T03:46:45;16.50;36.90
31379;DHT22;61664;48.112;11.662;2023-06-14T03:49:13;16.50;36.90
31379;DHT22;61664;48.112;11.662;2023-06-14T03:51:40;16.50;36.90
31379;DHT22;61664;48.112;11.662;2023-06-14T03:54:07;16.50;36.90
31379;DHT22;61664;48.112;11.662;2023-06-14T03:56:37;16.50;37.00
31379;DHT22;61664;48.112;11.662;2023-06-14T03:59:04;16.50;37.00
31379;DHT22;61664;48.112;11.662;2023-06-14T04:01:31;16.40;37.10
31379;DHT22;61664;48.112;11.662;2023-06-14T04:04:00;16.50;37.10
31379;DHT22;61664;48.112;11.662;2023-06-14T04:06:28;16.50;37.20
31379;DHT22;61664;48.112;11.662;2023-06-14T04:08:59;16.50;37.20
31379;DHT22;61664;48.112;11.662;2023-06-14T04:11:30;16.50;37.30
31379;DHT22;61664;48.112;11.662;2023-06-14T04:13:58;16.60;36.90
31379;DHT22;61664;48.112;11.662;2023-06-14T04:16:25;16.50;36.70
31379;DHT22;61664;48.112;11.662;2023-06-14T04:18:54;16.50;36.90
31379;DHT22;61664;48.112;11.662;2023-06-14T04:21:21;16.50;37.10
31379;DHT22;61664;48.112;11.662;2023-06-14T04:23:50;16.60;37.10
31379;DHT22;61664;48.112;11.662;2023-06-14T04:26:19;16.50;37.00
31379;DHT22;61664;48.112;11.662;2023-06-14T04:28:50;16.60;37.00
31379;DHT22;61664;48.112;11.662;2023-06-14T04:31:17;16.60;37.00
31379;DHT22;61664;48.112;11.662;2023-06-14T04:33:44;16.60;37.10
31379;DHT22;61664;48.112;11.662;2023-06-14T04:36:13;16.60;37.10
31379;DHT22;61664;48.112;11.662;2023-06-14T04:38:44;16.70;37.20
31379;DHT22;61664;48.112;11.662;2023-06-14T04:41:15;16.70;37.10
31379;DHT22;61664;48.112;11.662;2023-06-14T04:43:42;16.80;37.10
31379;DHT22;61664;48.112;11.662;2023-06-14T04:46:09;16.80;37.30
31379;DHT22;61664;48.112;11.662;2023-06-14T04:48:41;16.80;37.30
31379;DHT22;61664;48.112;11.662;2023-06-14T04:51:09;16.80;37.20
31379;DHT22;61664;48.112;11.662;2023-06-14T04:53:36;16.90;37.30
31379;DHT22;61664;48.112;11.662;2023-06-14T04:56:04;16.90;37.40
31379;DHT22;61664;48.112;11.662;2023-06-14T04:58:31;17.00;38.00
31379;DHT22;61664;48.112;11.662;2023-06-14T05:00:58;17.00;37.60
31379;DHT22;61664;48.112;11.662;2023-06-14T05:03:26;17.10;37.60
31379;DHT22;61664;48.112;11.662;2023-06-14T05:05:54;17.20;37.50
31379;DHT22;61664;48.112;11.662;2023-06-14T05:08:21;17.20;37.50
31379;DHT22;61664;48.112;11.662;2023-06-14T05:10:51;17.30;37.60
31379;DHT22;61664;48.112;11.662;2023-06-14T05:13:18;17.30;37.70
31379;DHT22;61664;48.112;11.662;2023-06-14T05:15:45;17.40;37.90
31379;DHT22;61664;48.112;11.662;2023-06-14T05:18:12;17.50;37.80
31379;DHT22;61664;48.112;11.662;2023-06-14T05:20:40;17.50;37.70
31379;DHT22;61664;48.112;11.662;2023-06-14T05:23:09;17.60;37.80
31379;DHT22;61664;48.112;11.662;2023-06-14T05:25:45;17.60;37.90
31379;DHT22;61664;48.112;11.662;2023-06-14T05:28:13;17.70;38.20
31379;DHT22;61664;48.112;11.662;2023-06-14T05:30:40;17.70;37.80
31379;DHT22;61664;48.112;11.662;2023-06-14T05:33:07;17.80;37.80
31379;DHT22;61664;48.112;11.662;2023-06-14T05:35:34;17.90;37.90
31379;DHT22;61664;48.112;11.662;2023-06-14T05:38:01;17.90;37.80
31379;DHT22;61664;48.112;11.662;2023-06-14T05:40:28;18.00;37.90
31379;DHT22;61664;48.112;11.662;2023-06-14T05:42:55;18.00;37.80
31379;DHT22;61664;48.112;11.662;2023-06-14T05:45:22;18.10;37.70
31379;DHT22;61664;48.112;11.662;2023-06-14T05:47:49;18.20;37.80
31379;DHT22;61664;48.112;11.662;2023-06-14T05:50:17;18.20;37.80
31379;DHT22;61664;48.112;11.662;2023-06-14T05:52:44;18.30;37.90
31379;DHT22;61664;48.112;11.662;2023-06-14T05:55:11;18.30;37.90
31379;DHT22;61664;48.112;11.662;2023-06-14T05:57:39;18.40;38.10
31379;DHT22;61664;48.112;11.662;2023-06-14T06:00:08;18.50;38.10
31379;DHT22;61664;48.112;11.662;2023-06-14T06:02:41;18.50;37.90
31379;DHT22;61664;48.112;11.662;2023-06-14T06:05:12;18.60;38.00
31379;DHT22;61664;48.112;11.662;2023-06-14T06:07:40;18.70;38.00
31379;DHT22;61664;48.112;11.662;2023-06-14T06:10:08;18.70;37.90
31379;DHT22;61664;48.112;11.662;2023-06-14T06:12:35;18.80;38.10
31379;DHT22;61664;48.112;11.662;2023-06-14T06:15:02;18.90;38.20
31379;DHT22;61664;48.112;11.662;2023-06-14T06:17:30;19.00;38.00
31379;DHT22;61664;48.112;11.662;2023-06-14T06:20:16;19.10;37.90
31379;DHT22;61664;48.112;11.662;2023-06-14T06:22:44;19.20;37.80
31379;DHT22;61664;48.112;11.662;2023-06-14T06:25:11;19.30;37.90
31379;DHT22;61664;48.112;11.662;2023-06-14T06:27:38;19.40;37.80
31379;DHT22;61664;48.112;11.662;2023-06-14T06:30:07;19.40;37.80
31379;DHT22;61664;48.112;11.662;2023-06-14T06:32:34;19.50;37.80
31379;DHT22;61664;48.112;11.662;2023-06-14T06:35:01;19.60;37.80
31379;DHT22;61664;48.112;11.662;2023-06-14T06:37:28;19.70;37.90
31379;DHT22;61664;48.112;11.662;2023-06-14T06:39:56;19.70;37.80
31379;DHT22;61664;48.112;11.662;2023-06-14T06:42:23;19.80;38.10
31379;DHT22;61664;48.112;11.662;2023-06-14T06:44:51;19.90;38.00
31379;DHT22;61664;48.112;11.662;2023-06-14T06:47:18;20.00;38.10
31379;DHT22;61664;48.112;11.662;2023-06-14T06:49:45;20.00;38.00
31379;DHT22;61664;48.112;11.662;2023-06-14T06:52:12;20.10;37.90
31379;DHT22;61664;48.112;11.662;2023-06-14T06:54:39;20.20;38.00
31379;DHT22;61664;48.112;11.662;2023-06-14T06:57:06;20.30;37.70
31379;DHT22;61664;48.112;11.662;2023-06-14T06:59:35;20.40;37.60
31379;DHT22;61664;48.112;11.662;2023-06-14T07:02:02;20.50;37.70
31379;DHT22;61664;48.112;11.662;2023-06-14T07:04:30;20.60;37.60
31379;DHT22;61664;48.112;11.662;2023-06-14T07:06:57;20.70;37.70
31379;DHT22;61664;48.112;11.662;2023-06-14T07:09:24;20.80;37.40
31379;DHT22;61664;48.112;11.662;2023-06-14T07:11:51;20.90;37.60
31379;DHT22;61664;48.112;11.662;2023-06-14T07:14:19;21.00;37.10
31379;DHT22;61664;48.112;11.662;2023-06-14T07:16:46;21.10;37.00
31379;DHT22;61664;48.112;11.662;2023-06-14T07:19:13;21.20;36.90
31379;DHT22;61664;48.112;11.662;2023-06-14T07:21:40;21.30;36.60
31379;DHT22;61664;48.112;11.662;2023-06-14T07:24:07;21.30;36.30
31379;DHT22;61664;48.112;11.662;2023-06-14T07:26:34;21.40;36.10
31379;DHT22;61664;48.112;11.662;2023-06-14T07:29:02;21.40;36.10
31379;DHT22;61664;48.112;11.662;2023-06-14T07:31:29;21.50;36.00
31379;DHT22;61664;48.112;11.662;2023-06-14T07:33:56;21.60;35.90
31379;DHT22;61664;48.112;11.662;2023-06-14T07:36:23;21.70;35.90
31379;DHT22;61664;48.112;11.662;2023-06-14T07:38:50;21.80;35.90
31379;DHT22;61664;48.112;11.662;2023-06-14T07:41:17;21.80;35.60
31379;DHT22;61664;48.112;11.662;2023-06-14T07:43:44;21.90;35.50
31379;DHT22;61664;48.112;11.662;2023-06-14T07:46:11;22.00;35.40
31379;DHT22;61664;48.112;11.662;2023-06-14T07:48:38;22.10;35.40
31379;DHT22;61664;48.112;11.662;2023-06-14T07:51:05;22.30;35.10
31379;DHT22;61664;48.112;11.662;2023-06-14T07:53:32;22.40;34.80
31379;DHT22;61664;48.112;11.662;2023-06-14T07:55:59;22.50;34.60
31379;DHT22;61664;48.112;11.662;2023-06-14T07:58:26;22.60;34.60
31379;DHT22;61664;48.112;11.662;2023-06-14T08:00:53;22.70;34.50
31379;DHT22;61664;48.112;11.662;2023-06-14T08:03:20;22.80;34.10
31379;DHT22;61664;48.112;11.662;2023-06-14T08:05:49;22.90;33.90
31379;DHT22;61664;48.112;11.662;2023-06-14T08:08:16;23.00;33.40
31379;DHT22;61664;48.112;11.662;2023-06-14T08:10:44;23.10;32.90
31379;DHT22;61664;48.112;11.662;2023-06-14T08:13:11;23.20;32.60
31379;DHT22;61664;48.112;11.662;2023-06-14T08:15:38;23.30;32.50
31379;DHT22;61664;48.112;11.662;2023-06-14T08:18:05;23.40;32.50
31379;DHT22;61664;48.112;11.662;2023-06-14T08:20:32;23.50;32.30
31379;DHT22;61664;48.112;11.662;2023-06-14T08:23:03;23.50;31.90
31379;DHT22;61664;48.112;11.662;2023-06-14T08:25:30;23.70;31.80
31379;DHT22;61664;48.112;11.662;2023-06-14T08:27:59;23.80;31.60
31379;DHT22;61664;48.112;11.662;2023-06-14T08:30:26;23.80;31.40
31379;DHT22;61664;48.112;11.662;2023-06-14T08:32:53;23.90;31.10
31379;DHT22;61664;48.112;11.662;2023-06-14T08:35:41;24.00;31.00
31379;DHT22;61664;48.112;11.662;2023-06-14T08:38:07;24.20;31.00
31379;DHT22;61664;48.112;11.662;2023-06-14T08:40:37;24.30;30.70
31379;DHT22;61664;48.112;11.662;2023-06-14T08:43:07;24.40;30.80
31379;DHT22;61664;48.112;11.662;2023-06-14T08:45:34;24.60;30.70
31379;DHT22;61664;48.112;11.662;2023-06-14T08:48:01;24.80;30.80
31379;DHT22;61664;48.112;11.662;2023-06-14T08:50:30;25.10;31.20
31379;DHT22;61664;48.112;11.662;2023-06-14T08:53:01;25.40;31.40
31379;DHT22;61664;48.112;11.662;2023-06-14T08:55:31;25.80;31.80
31379;DHT22;61664;48.112;11.662;2023-06-14T08:58:02;26.40;32.00
31379;DHT22;61664;48.112;11.662;2023-06-14T09:00:31;27.00;31.70
31379;DHT22;61664;48.112;11.662;2023-06-14T09:03:00;27.70;31.00
31379;DHT22;61664;48.112;11.662;2023-06-14T09:05:28;28.30;30.40
31379;DHT22;61664;48.112;11.662;2023-06-14T09:07:55;28.90;29.80
31379;DHT22;61664;48.112;11.662;2023-06-14T09:10:31;29.50;29.30
31379;DHT22;61664;48.112;11.662;2023-06-14T09:13:05;30.00;29.10
31379;DHT22;61664;48.112;11.662;2023-06-14T09:15:34;30.60;28.90
31379;DHT22;61664;48.112;11.662;2023-06-14T09:18:02;31.10;28.70
31379;DHT22;61664;48.112;11.662;2023-06-14T09:20:30;31.70;28.50
31379;DHT22;61664;48.112;11.662;2023-06-14T09:22:58;32.20;27.80
31379;DHT22;61664;48.112;11.662;2023-06-14T09:25:29;32.70;27.30
31379;DHT22;61664;48.112;11.662;2023-06-14T09:28:08;33.10;26.80
31379;DHT22;61664;48.112;11.662;2023-06-14T09:30:37;33.50;26.60
31379;DHT22;61664;48.112;11.662;2023-06-14T09:33:05;33.70;26.60
31379;DHT22;61664;48.112;11.662;2023-06-14T09:35:32;33.60;26.00
31379;DHT22;61664;48.112;11.662;2023-06-14T09:37:59;33.40;25.50
31379;DHT22;61664;48.112;11.662;2023-06-14T09:40:27;32.90;25.20
31379;DHT22;61664;48.112;11.662;2023-06-14T09:42:54;32.50;25.10
31379;DHT22;61664;48.112;11.662;2023-06-14T09:45:25;32.00;25.20
31379;DHT22;61664;48.112;11.662;2023-06-14T09:47:57;31.60;25.30
31379;DHT22;61664;48.112;11.662;2023-06-14T09:50:27;31.30;25.60
31379;DHT22;61664;48.112;11.662;2023-06-14T09:52:58;31.20;25.90
31379;DHT22;61664;48.112;11.662;2023-06-14T09:55:36;31.30;26.10
31379;DHT22;61664;48.112;11.662;2023-06-14T09:58:05;31.50;26.00
31379;DHT22;61664;48.112;11.662;2023-06-14T10:00:34;31.60;25.60
31379;DHT22;61664;48.112;11.662;2023-06-14T10:03:28;31.50;26.00
31379;DHT22;61664;48.112;11.662;2023-06-14T10:06:17;31.40;25.60
31379;DHT22;61664;48.112;11.662;2023-06-14T10:08:45;31.50;26.00
31379;DHT22;61664;48.112;11.662;2023-06-14T10:11:13;31.60;25.50
31379;DHT22;61664;48.112;11.662;2023-06-14T10:13:40;31.60;25.30
31379;DHT22;61664;48.112;11.662;2023-06-14T10:16:12;31.30;25.00
31379;DHT22;61664;48.112;11.662;2023-06-14T10:24:33;31.50;25.60
31379;DHT22;61664;48.112;11.662;2023-06-14T10:27:05;31.60;25.00
31379;DHT22;61664;48.112;11.662;2023-06-14T10:30:09;31.70;25.60
31379;DHT22;61664;48.112;11.662;2023-06-14T10:33:06;31.50;25.00
31379;DHT22;61664;48.112;11.662;2023-06-14T10:35:34;31.20;24.60
31379;DHT22;61664;48.112;11.662;2023-06-14T10:38:11;30.90;24.70
31379;DHT22;61664;48.112;11.662;2023-06-14T10:40:39;30.60;24.60
31379;DHT22;61664;48.112;11.662;2023-06-14T10:43:24;30.40;24.70
31379;DHT22;61664;48.112;11.662;2023-06-14T10:48:41;30.20;25.40
31379;DHT22;61664;48.112;11.662;2023-06-14T10:51:19;30.60;26.20
31379;DHT22;61664;48.112;11.662;2023-06-14T10:53:50;31.20;25.60
31379;DHT22;61664;48.112;11.662;2023-06-14T10:56:30;31.90;26.10
31379;DHT22;61664;48.112;11.662;2023-06-14T10:58:57;32.60;25.40
31379;DHT22;61664;48.112;11.662;2023-06-14T11:01:37;32.80;25.30
31379;DHT22;61664;48.112;11.662;2023-06-14T11:04:20;32.90;24.80
31379;DHT22;61664;48.112;11.662;2023-06-14T11:06:49;33.00;25.10
31379;DHT22;61664;48.112;11.662;2023-06-14T11:09:34;33.40;25.50
31379;DHT22;61664;48.112;11.662;2023-06-14T11:12:18;33.80;24.90
31379;DHT22;61664;48.112;11.662;2023-06-14T11:14:48;34.00;24.90
31379;DHT22;61664;48.112;11.662;2023-06-14T11:17:15;34.20;24.70
31379;DHT22;61664;48.112;11.662;2023-06-14T11:19:42;34.50;25.10
31379;DHT22;61664;48.112;11.662;2023-06-14T11:22:10;34.90;24.80
31379;DHT22;61664;48.112;11.662;2023-06-14T11:24:37;35.30;24.60
31379;DHT22;61664;48.112;11.662;2023-06-14T11:27:06;35.50;24.30
31379;DHT22;61664;48.112;11.662;2023-06-14T11:29:35;35.70;23.80
31379;DHT22;61664;48.112;11.662;2023-06-14T11:32:02;35.60;23.70
31379;DHT22;61664;48.112;11.662;2023-06-14T11:34:30;35.50;23.50
31379;DHT22;61664;48.112;11.662;2023-06-14T11:36:57;35.30;23.30
31379;DHT22;61664;48.112;11.662;2023-06-14T11:39:24;35.00;23.20
31379;DHT22;61664;48.112;11.662;2023-06-14T11:41:52;34.60;23.60
31379;DHT22;61664;48.112;11.662;2023-06-14T11:44:19;34.30;23.10
31379;DHT22;61664;48.112;11.662;2023-06-14T11:46:46;34.00;23.00
31379;DHT22;61664;48.112;11.662;2023-06-14T11:49:13;33.60;22.80
31379;DHT22;61664;48.112;11.662;2023-06-14T11:51:42;33.30;22.90
31379;DHT22;61664;48.112;11.662;2023-06-14T11:54:09;32.90;22.80
31379;DHT22;61664;48.112;11.662;2023-06-14T11:56:36;32.70;23.00
31379;DHT22;61664;48.112;11.662;2023-06-14T11:59:04;32.40;23.20
31379;DHT22;61664;48.112;11.662;2023-06-14T12:01:35;32.10;23.30
31379;DHT22;61664;48.112;11.662;2023-06-14T12:04:05;32.00;23.20
31379;DHT22;61664;48.112;11.662;2023-06-14T12:06:32;31.80;23.30
31379;DHT22;61664;48.112;11.662;2023-06-14T12:09:06;31.70;23.30
31379;DHT22;61664;48.112;11.662;2023-06-14T12:11:38;31.60;23.30
31379;DHT22;61664;48.112;11.662;2023-06-14T12:14:06;31.60;23.60
31379;DHT22;61664;48.112;11.662;2023-06-14T12:16:37;31.60;23.80
31379;DHT22;61664;48.112;11.662;2023-06-14T12:19:26;31.70;23.80
31379;DHT22;61664;48.112;11.662;2023-06-14T12:21:53;31.90;23.80
31379;DHT22;61664;48.112;11.662;2023-06-14T12:24:19;32.00;24.00
31379;DHT22;61664;48.112;11.662;2023-06-14T12:26:46;31.90;23.30
31379;DHT22;61664;48.112;11.662;2023-06-14T12:29:14;31.90;23.20
31379;DHT22;61664;48.112;11.662;2023-06-14T12:31:41;31.70;23.20
31379;DHT22;61664;48.112;11.662;2023-06-14T12:34:08;31.60;23.40
31379;DHT22;61664;48.112;11.662;2023-06-14T12:36:35;31.40;23.30
31379;DHT22;61664;48.112;11.662;2023-06-14T12:39:07;31.40;23.40
31379;DHT22;61664;48.112;11.662;2023-06-14T12:41:35;31.40;24.00
31379;DHT22;61664;48.112;11.662;2023-06-14T12:44:03;31.40;23.60
31379;DHT22;61664;48.112;11.662;2023-06-14T12:46:31;31.50;23.60
31379;DHT22;61664;48.112;11.662;2023-06-14T12:48:59;31.50;23.70
31379;DHT22;61664;48.112;11.662;2023-06-14T12:51:26;31.50;23.70
31379;DHT22;61664;48.112;11.662;2023-06-14T12:53:53;31.50;23.70
31379;DHT22;61664;48.112;11.662;2023-06-14T12:56:20;31.50;23.60
31379;DHT22;61664;48.112;11.662;2023-06-14T12:58:50;31.50;23.40
31379;DHT22;61664;48.112;11.662;2023-06-14T13:01:18;31.50;23.50
31379;DHT22;61664;48.112;11.662;2023-06-14T13:03:48;31.40;23.40
31379;DHT22;61664;48.112;11.662;2023-06-14T13:06:17;31.40;23.50
31379;DHT22;61664;48.112;11.662;2023-06-14T13:08:44;31.40;23.60
31379;DHT22;61664;48.112;11.662;2023-06-14T13:11:11;31.40;23.40
31379;DHT22;61664;48.112;11.662;2023-06-14T13:13:38;31.30;23.30
31379;DHT22;61664;48.112;11.662;2023-06-14T13:16:05;31.30;23.40
31379;DHT22;61664;48.112;11.662;2023-06-14T13:18:33;31.30;23.40
31379;DHT22;61664;48.112;11.662;2023-06-14T13:21:00;31.40;23.40
31379;DHT22;61664;48.112;11.662;2023-06-14T13:23:30;31.40;23.50
31379;DHT22;61664;48.112;11.662;2023-06-14T13:25:57;31.50;23.60
31379;DHT22;61664;48.112;11.662;2023-06-14T13:28:28;31.70;23.80
31379;DHT22;61664;48.112;11.662;2023-06-14T13:30:56;31.90;23.80
31379;DHT22;61664;48.112;11.662;2023-06-14T13:33:22;32.20;23.80
31379;DHT22;61664;48.112;11.662;2023-06-14T13:35:51;32.60;23.80
31379;DHT22;61664;48.112;11.662;2023-06-14T13:38:19;33.00;24.00
31379;DHT22;61664;48.112;11.662;2023-06-14T13:40:46;33.60;23.90
31379;DHT22;61664;48.112;11.662;2023-06-14T13:43:13;34.40;24.00
31379;DHT22;61664;48.112;11.662;2023-06-14T13:45:40;35.10;23.80
31379;DHT22;61664;48.112;11.662;2023-06-14T13:48:07;35.80;23.70
31379;DHT22;61664;48.112;11.662;2023-06-14T13:50:34;36.50;23.40
31379;DHT22;61664;48.112;11.662;2023-06-14T13:53:01;37.00;23.20
31379;DHT22;61664;48.112;11.662;2023-06-14T13:55:28;37.50;23.10
31379;DHT22;61664;48.112;11.662;2023-06-14T13:57:55;38.20;23.10
31379;DHT22;61664;48.112;11.662;2023-06-14T14:00:31;39.00;22.90
31379;DHT22;61664;48.112;11.662;2023-06-14T14:02:58;39.80;22.20
31379;DHT22;61664;48.112;11.662;2023-06-14T14:05:26;40.40;22.70
31379;DHT22;61664;48.112;11.662;2023-06-14T14:07:56;41.10;22.50
31379;DHT22;61664;48.112;11.662;2023-06-14T14:10:24;41.60;23.30
31379;DHT22;61664;48.112;11.662;2023-06-14T14:12:54;42.30;22.40
31379;DHT22;61664;48.112;11.662;2023-06-14T14:15:21;42.80;22.10
31379;DHT22;61664;48.112;11.662;2023-06-14T14:17:48;43.50;21.90
31379;DHT22;61664;48.112;11.662;2023-06-14T14:20:15;43.90;21.70
31379;DHT22;61664;48.112;11.662;2023-06-14T14:22:44;44.20;21.40
31379;DHT22;61664;48.112;11.662;2023-06-14T14:25:11;44.60;21.50
31379;DHT22;61664;48.112;11.662;2023-06-14T14:27:38;44.80;21.10
31379;DHT22;61664;48.112;11.662;2023-06-14T14:30:06;45.00;21.00
31379;DHT22;61664;48.112;11.662;2023-06-14T14:32:34;45.20;20.90
31379;DHT22;61664;48.112;11.662;2023-06-14T14:35:01;45.40;20.80
31379;DHT22;61664;48.112;11.662;2023-06-14T14:37:28;45.50;21.10
31379;DHT22;61664;48.112;11.662;2023-06-14T14:39:55;45.60;20.60
31379;DHT22;61664;48.112;11.662;2023-06-14T14:42:22;45.70;20.50
31379;DHT22;61664;48.112;11.662;2023-06-14T14:44:48;45.80;20.60
31379;DHT22;61664;48.112;11.662;2023-06-14T14:47:15;45.90;20.60
31379;DHT22;61664;48.112;11.662;2023-06-14T14:49:43;45.90;20.60
31379;DHT22;61664;48.112;11.662;2023-06-14T14:52:10;46.10;20.50
31379;DHT22;61664;48.112;11.662;2023-06-14T14:54:49;46.20;20.50
31379;DHT22;61664;48.112;11.662;2023-06-14T14:57:16;46.30;20.40
31379;DHT22;61664;48.112;11.662;2023-06-14T14:59:43;46.50;20.20
31379;DHT22;61664;48.112;11.662;2023-06-14T15:02:10;46.40;20.10
31379;DHT22;61664;48.112;11.662;2023-06-14T15:04:38;46.40;20.00
31379;DHT22;61664;48.112;11.662;2023-06-14T15:07:05;46.30;20.00
31379;DHT22;61664;48.112;11.662;2023-06-14T15:09:33;46.30;19.90
31379;DHT22;61664;48.112;11.662;2023-06-14T15:11:59;46.20;19.80
31379;DHT22;61664;48.112;11.662;2023-06-14T15:14:26;46.10;19.70
31379;DHT22;61664;48.112;11.662;2023-06-14T15:16:53;46.00;19.80
31379;DHT22;61664;48.112;11.662;2023-06-14T15:19:21;46.00;19.60
31379;DHT22;61664;48.112;11.662;2023-06-14T15:21:48;46.10;19.60
31379;DHT22;61664;48.112;11.662;2023-06-14T15:24:14;46.00;19.60
31379;DHT22;61664;48.112;11.662;2023-06-14T15:26:50;45.90;19.50
31379;DHT22;61664;48.112;11.662;2023-06-14T15:29:19;45.90;19.40
31379;DHT22;61664;48.112;11.662;2023-06-14T15:31:46;45.90;19.50
31379;DHT22;61664;48.112;11.662;2023-06-14T15:34:14;45.90;19.40
31379;DHT22;61664;48.112;11.662;2023-06-14T15:36:41;45.90;19.30
31379;DHT22;61664;48.112;11.662;2023-06-14T15:39:08;45.90;19.30
31379;DHT22;61664;48.112;11.662;2023-06-14T15:41:35;45.70;19.30